sensor_id;sensor_type;location;lat;lon;timestamp;P1;durP1;ratioP1;P2;durP2;ratioP2
23171;SDS011;11754;42.664;23.594;2023-01-24T00:00:47;10.63;;;7.30;;
23171;SDS011;11754;42.664;23.594;2023-01-24T00:03:13;6.32;;;4.50;;
23171;SDS011;11754;42.664;23.594;2023-01-24T00:05:39;8.98;;;6.47;;
23171;SDS011;11754;42.664;23.594;2023-01-24T00:08:05;9.45;;;6.72;;
23171;SDS011;11754;42.664;23.594;2023-01-24T00:10:30;8.48;;;6.88;;
23171;SDS011;11754;42.664;23.594;2023-01-24T00:12:56;8.80;;;6.60;;
23171;SDS011;11754;42.664;23.594;2023-01-24T00:15:22;8.50;;;6.35;;
23171;SDS011;11754;42.664;23.594;2023-01-24T00:17:48;8.55;;;5.22;;
23171;SDS011;11754;42.664;23.594;2023-01-24T00:20:13;6.50;;;4.70;;
23171;SDS011;11754;42.664;23.594;2023-01-24T00:22:38;7.75;;;5.15;;
23171;SDS011;11754;42.664;23.594;2023-01-24T00:25:04;6.80;;;4.57;;
23171;SDS011;11754;42.664;23.594;2023-01-24T00:27:30;6.63;;;4.38;;
23171;SDS011;11754;42.664;23.594;2023-01-24T00:29:56;8.70;;;4.30;;
23171;SDS011;11754;42.664;23.594;2023-01-24T00:32:22;7.82;;;4.43;;
23171;SDS011;11754;42.664;23.594;2023-01-24T00:34:47;6.00;;;4.43;;
23171;SDS011;11754;42.664;23.594;2023-01-24T00:37:13;8.85;;;4.45;;
23171;SDS011;11754;42.664;23.594;2023-01-24T00:39:38;4.88;;;3.60;;
23171;SDS011;11754;42.664;23.594;2023-01-24T00:42:03;6.68;;;3.38;;
23171;SDS011;11754;42.664;23.594;2023-01-24T00:44:29;7.03;;;3.40;;
23171;SDS011;11754;42.664;23.594;2023-01-24T00:46:54;6.05;;;3.60;;
23171;SDS011;11754;42.664;23.594;2023-01-24T00:49:20;6.15;;;3.85;;
23171;SDS011;11754;42.664;23.594;2023-01-24T00:51:45;6.60;;;4.50;;
23171;SDS011;11754;42.664;23.594;2023-01-24T00:54:10;6.10;;;3.50;;
23171;SDS011;11754;42.664;23.594;2023-01-24T00:56:36;6.25;;;3.63;;
23171;SDS011;11754;42.664;23.594;2023-01-24T00:59:01;5.30;;;3.65;;
23171;SDS011;11754;42.664;23.594;2023-01-24T01:01:27;6.05;;;3.10;;
23171;SDS011;11754;42.664;23.594;2023-01-24T01:03:56;6.90;;;3.35;;
23171;SDS011;11754;42.664;23.594;2023-01-24T01:06:22;4.93;;;2.95;;
23171;SDS011;11754;42.664;23.594;2023-01-24T01:08:49;8.60;;;4.35;;
23171;SDS011;11754;42.664;23.594;2023-01-24T01:11:14;5.05;;;3.17;;
23171;SDS011;11754;42.664;23.594;2023-01-24T01:13:40;5.15;;;3.30;;
23171;SDS011;11754;42.664;23.594;2023-01-24T01:16:12;5.82;;;3.10;;
23171;SDS011;11754;42.664;23.594;2023-01-24T01:18:41;6.72;;;3.72;;
23171;SDS011;11754;42.664;23.594;2023-01-24T01:21:07;6.68;;;3.28;;
23171;SDS011;11754;42.664;23.594;2023-01-24T01:23:32;5.55;;;3.35;;
23171;SDS011;11754;42.664;23.594;2023-01-24T01:26:01;4.25;;;2.72;;
23171;SDS011;11754;42.664;23.594;2023-01-24T01:28:28;3.85;;;2.45;;
23171;SDS011;11754;42.664;23.594;2023-01-24T01:30:54;3.55;;;2.33;;
23171;SDS011;11754;42.664;23.594;2023-01-24T01:33:20;3.25;;;2.17;;
23171;SDS011;11754;42.664;23.594;2023-01-24T01:35:46;3.38;;;2.10;;
23171;SDS011;11754;42.664;23.594;2023-01-24T01:38:13;4.57;;;2.38;;
23171;SDS011;11754;42.664;23.594;2023-01-24T01:40:38;4.88;;;2.50;;
23171;SDS011;11754;42.664;23.594;2023-01-24T01:43:05;4.30;;;3.05;;
23171;SDS011;11754;42.664;23.594;2023-01-24T01:45:38;4.60;;;2.60;;
23171;SDS011;11754;42.664;23.594;2023-01-24T01:48:18;5.47;;;3.08;;
23171;SDS011;11754;42.664;23.594;2023-01-24T01:50:45;3.90;;;2.50;;
23171;SDS011;11754;42.664;23.594;2023-01-24T01:53:15;3.90;;;2.35;;
23171;SDS011;11754;42.664;23.594;2023-01-24T01:55:43;4.35;;;3.00;;
23171;SDS011;11754;42.664;23.594;2023-01-24T01:58:13;5.03;;;3.00;;
23171;SDS011;11754;42.664;23.594;2023-01-24T02:00:40;10.40;;;4.10;;
23171;SDS011;11754;42.664;23.594;2023-01-24T02:03:14;9.50;;;5.50;;
23171;SDS011;11754;42.664;23.594;2023-01-24T02:06:00;5.72;;;2.65;;
23171;SDS011;11754;42.664;23.594;2023-01-24T02:08:26;3.67;;;2.00;;
23171;SDS011;11754;42.664;23.594;2023-01-24T02:10:52;3.65;;;2.25;;
23171;SDS011;11754;42.664;23.594;2023-01-24T02:13:37;3.95;;;2.00;;
23171;SDS011;11754;42.664;23.594;2023-01-24T02:16:10;4.50;;;2.42;;
23171;SDS011;11754;42.664;23.594;2023-01-24T02:18:37;4.28;;;2.30;;
23171;SDS011;11754;42.664;23.594;2023-01-24T02:21:12;5.25;;;2.10;;
23171;SDS011;11754;42.664;23.594;2023-01-24T02:23:44;4.40;;;1.88;;
23171;SDS011;11754;42.664;23.594;2023-01-24T02:28:43;5.38;;;2.00;;
23171;SDS011;11754;42.664;23.594;2023-01-24T02:31:29;3.05;;;1.80;;
23171;SDS011;11754;42.664;23.594;2023-01-24T02:33:54;6.03;;;1.92;;
23171;SDS011;11754;42.664;23.594;2023-01-24T02:36:22;2.72;;;1.48;;
23171;SDS011;11754;42.664;23.594;2023-01-24T02:39:00;3.17;;;1.85;;
23171;SDS011;11754;42.664;23.594;2023-01-24T02:41:28;3.25;;;1.40;;
23171;SDS011;11754;42.664;23.594;2023-01-24T02:44:01;8.38;;;5.05;;
23171;SDS011;11754;42.664;23.594;2023-01-24T02:46:29;3.55;;;2.40;;
23171;SDS011;11754;42.664;23.594;2023-01-24T02:48:55;3.50;;;1.70;;
23171;SDS011;11754;42.664;23.594;2023-01-24T02:51:21;3.03;;;1.33;;
23171;SDS011;11754;42.664;23.594;2023-01-24T02:54:04;3.63;;;1.90;;
23171;SDS011;11754;42.664;23.594;2023-01-24T02:56:30;2.72;;;1.70;;
23171;SDS011;11754;42.664;23.594;2023-01-24T02:59:14;2.28;;;1.50;;
23171;SDS011;11754;42.664;23.594;2023-01-24T03:01:39;2.95;;;1.40;;
23171;SDS011;11754;42.664;23.594;2023-01-24T03:04:05;2.40;;;1.30;;
23171;SDS011;11754;42.664;23.594;2023-01-24T03:06:30;2.13;;;1.50;;
23171;SDS011;11754;42.664;23.594;2023-01-24T03:08:55;3.88;;;1.50;;
23171;SDS011;11754;42.664;23.594;2023-01-24T03:11:21;2.28;;;1.30;;
23171;SDS011;11754;42.664;23.594;2023-01-24T03:13:46;2.85;;;1.58;;
23171;SDS011;11754;42.664;23.594;2023-01-24T03:16:30;3.80;;;1.33;;
23171;SDS011;11754;42.664;23.594;2023-01-24T03:19:14;1.85;;;1.10;;
23171;SDS011;11754;42.664;23.594;2023-01-24T03:21:58;2.10;;;1.20;;
23171;SDS011;11754;42.664;23.594;2023-01-24T03:24:42;2.50;;;1.33;;
23171;SDS011;11754;42.664;23.594;2023-01-24T03:27:26;2.75;;;1.60;;
23171;SDS011;11754;42.664;23.594;2023-01-24T03:30:10;2.50;;;1.63;;
23171;SDS011;11754;42.664;23.594;2023-01-24T03:33:01;2.38;;;1.45;;
23171;SDS011;11754;42.664;23.594;2023-01-24T03:35:49;4.30;;;2.08;;
23171;SDS011;11754;42.664;23.594;2023-01-24T03:38:19;4.03;;;2.40;;
23171;SDS011;11754;42.664;23.594;2023-01-24T03:41:04;5.40;;;1.80;;
23171;SDS011;11754;42.664;23.594;2023-01-24T03:43:30;2.83;;;1.80;;
23171;SDS011;11754;42.664;23.594;2023-01-24T03:45:57;3.50;;;1.98;;
23171;SDS011;11754;42.664;23.594;2023-01-24T03:48:22;3.72;;;1.73;;
23171;SDS011;11754;42.664;23.594;2023-01-24T03:50:51;3.20;;;1.95;;
23171;SDS011;11754;42.664;23.594;2023-01-24T03:53:36;4.07;;;2.42;;
23171;SDS011;11754;42.664;23.594;2023-01-24T03:56:02;5.43;;;2.58;;
23171;SDS011;11754;42.664;23.594;2023-01-24T03:58:28;5.20;;;3.05;;
23171;SDS011;11754;42.664;23.594;2023-01-24T04:00:56;6.93;;;2.97;;
23171;SDS011;11754;42.664;23.594;2023-01-24T04:03:22;5.07;;;2.63;;
23171;SDS011;11754;42.664;23.594;2023-01-24T04:05:48;4.68;;;2.55;;
23171;SDS011;11754;42.664;23.594;2023-01-24T04:08:14;4.78;;;2.60;;
23171;SDS011;11754;42.664;23.594;2023-01-24T04:10:40;7.22;;;2.85;;
23171;SDS011;11754;42.664;23.594;2023-01-24T04:13:05;7.18;;;3.30;;
23171;SDS011;11754;42.664;23.594;2023-01-24T04:15:32;4.50;;;2.50;;
23171;SDS011;11754;42.664;23.594;2023-01-24T04:17:58;4.88;;;2.08;;
23171;SDS011;11754;42.664;23.594;2023-01-24T04:20:26;3.50;;;1.90;;
23171;SDS011;11754;42.664;23.594;2023-01-24T04:22:53;3.58;;;1.92;;
23171;SDS011;11754;42.664;23.594;2023-01-24T04:25:19;4.05;;;2.00;;
23171;SDS011;11754;42.664;23.594;2023-01-24T04:27:44;2.58;;;1.65;;
23171;SDS011;11754;42.664;23.594;2023-01-24T04:30:11;4.30;;;1.80;;
23171;SDS011;11754;42.664;23.594;2023-01-24T04:32:38;4.15;;;1.70;;
23171;SDS011;11754;42.664;23.594;2023-01-24T04:35:03;2.28;;;1.40;;
23171;SDS011;11754;42.664;23.594;2023-01-24T04:37:29;2.90;;;1.67;;
23171;SDS011;11754;42.664;23.594;2023-01-24T04:39:55;6.10;;;2.53;;
23171;SDS011;11754;42.664;23.594;2023-01-24T04:42:21;3.40;;;2.20;;
23171;SDS011;11754;42.664;23.594;2023-01-24T04:44:46;5.15;;;2.70;;
23171;SDS011;11754;42.664;23.594;2023-01-24T04:47:12;5.90;;;2.90;;
23171;SDS011;11754;42.664;23.594;2023-01-24T04:49:37;6.65;;;3.38;;
23171;SDS011;11754;42.664;23.594;2023-01-24T04:52:03;5.93;;;3.33;;
23171;SDS011;11754;42.664;23.594;2023-01-24T04:54:28;9.55;;;4.75;;
23171;SDS011;11754;42.664;23.594;2023-01-24T04:56:54;8.30;;;5.07;;
23171;SDS011;11754;42.664;23.594;2023-01-24T04:59:19;7.50;;;4.45;;
23171;SDS011;11754;42.664;23.594;2023-01-24T05:01:45;4.88;;;3.15;;
23171;SDS011;11754;42.664;23.594;2023-01-24T05:04:10;7.30;;;4.75;;
23171;SDS011;11754;42.664;23.594;2023-01-24T05:06:36;6.55;;;3.63;;
23171;SDS011;11754;42.664;23.594;2023-01-24T05:09:01;4.30;;;2.80;;
23171;SDS011;11754;42.664;23.594;2023-01-24T05:11:27;4.80;;;2.92;;
23171;SDS011;11754;42.664;23.594;2023-01-24T05:13:53;5.43;;;2.75;;
23171;SDS011;11754;42.664;23.594;2023-01-24T05:16:18;12.93;;;5.15;;
23171;SDS011;11754;42.664;23.594;2023-01-24T05:18:44;4.90;;;2.67;;
23171;SDS011;11754;42.664;23.594;2023-01-24T05:21:13;5.93;;;3.40;;
23171;SDS011;11754;42.664;23.594;2023-01-24T05:23:40;9.13;;;4.78;;
23171;SDS011;11754;42.664;23.594;2023-01-24T05:26:06;10.15;;;5.97;;
23171;SDS011;11754;42.664;23.594;2023-01-24T05:28:32;9.10;;;5.00;;
23171;SDS011;11754;42.664;23.594;2023-01-24T05:30:59;15.95;;;8.43;;
23171;SDS011;11754;42.664;23.594;2023-01-24T05:33:28;7.95;;;4.55;;
23171;SDS011;11754;42.664;23.594;2023-01-24T05:36:01;10.77;;;5.63;;
23171;SDS011;11754;42.664;23.594;2023-01-24T05:38:31;17.45;;;8.77;;
23171;SDS011;11754;42.664;23.594;2023-01-24T05:41:06;23.20;;;11.57;;
23171;SDS011;11754;42.664;23.594;2023-01-24T05:43:33;18.88;;;9.68;;
23171;SDS011;11754;42.664;23.594;2023-01-24T05:46:00;27.80;;;12.13;;
23171;SDS011;11754;42.664;23.594;2023-01-24T05:48:28;28.40;;;12.20;;
23171;SDS011;11754;42.664;23.594;2023-01-24T05:51:12;13.85;;;6.25;;
23171;SDS011;11754;42.664;23.594;2023-01-24T05:53:39;14.77;;;6.80;;
23171;SDS011;11754;42.664;23.594;2023-01-24T05:56:07;8.35;;;3.30;;
23171;SDS011;11754;42.664;23.594;2023-01-24T05:58:37;5.93;;;2.33;;
23171;SDS011;11754;42.664;23.594;2023-01-24T06:01:21;10.77;;;3.50;;
23171;SDS011;11754;42.664;23.594;2023-01-24T06:03:48;8.52;;;4.65;;
23171;SDS011;11754;42.664;23.594;2023-01-24T06:06:16;7.47;;;3.97;;
23171;SDS011;11754;42.664;23.594;2023-01-24T06:08:43;10.77;;;5.07;;
23171;SDS011;11754;42.664;23.594;2023-01-24T06:11:10;8.02;;;4.63;;
23171;SDS011;11754;42.664;23.594;2023-01-24T06:13:40;9.50;;;4.00;;
23171;SDS011;11754;42.664;23.594;2023-01-24T06:16:07;10.10;;;5.20;;
23171;SDS011;11754;42.664;23.594;2023-01-24T06:18:38;13.82;;;6.07;;
23171;SDS011;11754;42.664;23.594;2023-01-24T06:21:08;15.55;;;8.95;;
23171;SDS011;11754;42.664;23.594;2023-01-24T06:23:37;10.63;;;5.95;;
23171;SDS011;11754;42.664;23.594;2023-01-24T06:26:03;11.90;;;6.38;;
23171;SDS011;11754;42.664;23.594;2023-01-24T06:28:28;10.57;;;6.03;;
23171;SDS011;11754;42.664;23.594;2023-01-24T06:30:58;18.48;;;9.20;;
23171;SDS011;11754;42.664;23.594;2023-01-24T06:38:37;15.27;;;8.38;;
23171;SDS011;11754;42.664;23.594;2023-01-24T06:41:02;18.10;;;8.35;;
23171;SDS011;11754;42.664;23.594;2023-01-24T06:43:38;24.10;;;11.73;;
23171;SDS011;11754;42.664;23.594;2023-01-24T06:46:04;20.48;;;11.13;;
23171;SDS011;11754;42.664;23.594;2023-01-24T06:48:29;25.08;;;11.20;;
23171;SDS011;11754;42.664;23.594;2023-01-24T06:50:54;18.65;;;7.78;;
23171;SDS011;11754;42.664;23.594;2023-01-24T06:53:20;21.98;;;10.25;;
23171;SDS011;11754;42.664;23.594;2023-01-24T06:55:46;22.50;;;10.68;;
23171;SDS011;11754;42.664;23.594;2023-01-24T06:58:11;19.25;;;10.10;;
23171;SDS011;11754;42.664;23.594;2023-01-24T07:00:36;16.73;;;8.55;;
23171;SDS011;11754;42.664;23.594;2023-01-24T07:03:06;15.18;;;8.30;;
23171;SDS011;11754;42.664;23.594;2023-01-24T07:05:32;11.35;;;6.75;;
23171;SDS011;11754;42.664;23.594;2023-01-24T07:07:59;8.63;;;5.30;;
23171;SDS011;11754;42.664;23.594;2023-01-24T07:10:24;11.30;;;6.00;;
23171;SDS011;11754;42.664;23.594;2023-01-24T07:12:50;13.52;;;7.43;;
23171;SDS011;11754;42.664;23.594;2023-01-24T07:15:15;13.82;;;7.55;;
23171;SDS011;11754;42.664;23.594;2023-01-24T07:17:41;14.88;;;8.63;;
23171;SDS011;11754;42.664;23.594;2023-01-24T07:20:07;12.63;;;7.05;;
23171;SDS011;11754;42.664;23.594;2023-01-24T07:22:35;17.90;;;6.72;;
23171;SDS011;11754;42.664;23.594;2023-01-24T07:25:01;13.57;;;7.82;;
23171;SDS011;11754;42.664;23.594;2023-01-24T07:27:27;15.00;;;9.07;;
23171;SDS011;11754;42.664;23.594;2023-01-24T07:29:53;13.23;;;8.32;;
23171;SDS011;11754;42.664;23.594;2023-01-24T07:32:18;15.23;;;8.70;;
23171;SDS011;11754;42.664;23.594;2023-01-24T07:34:47;6.40;;;4.22;;
23171;SDS011;11754;42.664;23.594;2023-01-24T07:37:12;8.27;;;4.72;;
23171;SDS011;11754;42.664;23.594;2023-01-24T07:39:37;5.70;;;3.38;;
23171;SDS011;11754;42.664;23.594;2023-01-24T07:42:03;7.05;;;4.13;;
23171;SDS011;11754;42.664;23.594;2023-01-24T07:44:28;6.80;;;3.97;;
23171;SDS011;11754;42.664;23.594;2023-01-24T10:25:42;7.38;;;4.32;;
23171;SDS011;11754;42.664;23.594;2023-01-24T10:28:24;6.68;;;3.22;;
23171;SDS011;11754;42.664;23.594;2023-01-24T10:33:26;5.78;;;3.40;;
23171;SDS011;11754;42.664;23.594;2023-01-24T10:38:37;9.10;;;5.63;;
23171;SDS011;11754;42.664;23.594;2023-01-24T10:41:10;7.55;;;4.40;;
23171;SDS011;11754;42.664;23.594;2023-01-24T10:49:40;5.15;;;3.65;;
23171;SDS011;11754;42.664;23.594;2023-01-24T10:54:44;4.90;;;3.53;;
23171;SDS011;11754;42.664;23.594;2023-01-24T10:57:29;7.22;;;5.60;;
23171;SDS011;11754;42.664;23.594;2023-01-24T10:59:56;5.45;;;4.38;;
23171;SDS011;11754;42.664;23.594;2023-01-24T11:02:29;8.15;;;4.53;;
23171;SDS011;11754;42.664;23.594;2023-01-24T11:05:00;5.20;;;3.55;;
23171;SDS011;11754;42.664;23.594;2023-01-24T11:07:31;4.35;;;2.75;;
23171;SDS011;11754;42.664;23.594;2023-01-24T11:10:05;4.93;;;3.30;;
23171;SDS011;11754;42.664;23.594;2023-01-24T11:12:48;4.93;;;3.55;;
23171;SDS011;11754;42.664;23.594;2023-01-24T11:15:18;5.00;;;2.80;;
23171;SDS011;11754;42.664;23.594;2023-01-24T11:17:46;4.78;;;2.83;;
23171;SDS011;11754;42.664;23.594;2023-01-24T11:20:34;4.60;;;2.65;;
23171;SDS011;11754;42.664;23.594;2023-01-24T11:23:02;17.80;;;9.60;;
23171;SDS011;11754;42.664;23.594;2023-01-24T11:25:27;16.08;;;8.60;;
23171;SDS011;11754;42.664;23.594;2023-01-24T11:27:52;5.88;;;3.97;;
23171;SDS011;11754;42.664;23.594;2023-01-24T11:30:19;2.65;;;1.90;;
23171;SDS011;11754;42.664;23.594;2023-01-24T11:33:05;4.07;;;2.63;;
23171;SDS011;11754;42.664;23.594;2023-01-24T11:35:48;4.40;;;2.92;;
23171;SDS011;11754;42.664;23.594;2023-01-24T11:38:28;10.75;;;6.40;;
23171;SDS011;11754;42.664;23.594;2023-01-24T11:43:43;7.55;;;3.08;;
23171;SDS011;11754;42.664;23.594;2023-01-24T12:06:11;4.03;;;2.70;;
23171;SDS011;11754;42.664;23.594;2023-01-24T12:11:27;5.43;;;2.72;;
23171;SDS011;11754;42.664;23.594;2023-01-24T12:22:18;5.00;;;2.50;;
23171;SDS011;11754;42.664;23.594;2023-01-24T12:24:48;3.67;;;2.10;;
23171;SDS011;11754;42.664;23.594;2023-01-24T12:27:19;5.28;;;2.75;;
23171;SDS011;11754;42.664;23.594;2023-01-24T12:30:01;4.45;;;3.22;;
23171;SDS011;11754;42.664;23.594;2023-01-24T12:32:52;6.35;;;4.10;;
23171;SDS011;11754;42.664;23.594;2023-01-24T12:35:34;3.70;;;2.47;;
23171;SDS011;11754;42.664;23.594;2023-01-24T12:52:03;16.08;;;6.72;;
23171;SDS011;11754;42.664;23.594;2023-01-24T12:54:38;7.72;;;4.05;;
23171;SDS011;11754;42.664;23.594;2023-01-24T12:57:25;2.28;;;1.40;;
23171;SDS011;11754;42.664;23.594;2023-01-24T12:59:52;10.15;;;5.60;;
23171;SDS011;11754;42.664;23.594;2023-01-24T13:05:17;6.80;;;3.35;;
23171;SDS011;11754;42.664;23.594;2023-01-24T13:13:32;5.97;;;3.70;;
23171;SDS011;11754;42.664;23.594;2023-01-24T13:16:13;9.50;;;5.43;;
23171;SDS011;11754;42.664;23.594;2023-01-24T13:18:46;7.55;;;5.43;;
23171;SDS011;11754;42.664;23.594;2023-01-24T13:32:09;9.57;;;5.40;;
23171;SDS011;11754;42.664;23.594;2023-01-24T13:34:39;8.73;;;5.78;;
23171;SDS011;11754;42.664;23.594;2023-01-24T13:37:14;6.97;;;4.28;;
23171;SDS011;11754;42.664;23.594;2023-01-24T13:39:44;10.82;;;5.25;;
23171;SDS011;11754;42.664;23.594;2023-01-24T13:44:42;12.05;;;7.28;;
23171;SDS011;11754;42.664;23.594;2023-01-24T13:49:39;8.02;;;4.55;;
23171;SDS011;11754;42.664;23.594;2023-01-24T13:55:01;18.63;;;9.00;;
23171;SDS011;11754;42.664;23.594;2023-01-24T14:00:32;16.23;;;7.60;;
23171;SDS011;11754;42.664;23.594;2023-01-24T14:18:53;19.83;;;9.20;;
23171;SDS011;11754;42.664;23.594;2023-01-24T14:21:23;27.08;;;11.95;;
23171;SDS011;11754;42.664;23.594;2023-01-24T14:23:57;36.78;;;13.77;;
23171;SDS011;11754;42.664;23.594;2023-01-24T14:26:26;3.25;;;1.90;;
23171;SDS011;11754;42.664;23.594;2023-01-24T14:31:36;8.88;;;3.90;;
23171;SDS011;11754;42.664;23.594;2023-01-24T14:34:11;4.82;;;2.55;;
23171;SDS011;11754;42.664;23.594;2023-01-24T14:36:42;42.17;;;14.27;;
23171;SDS011;11754;42.664;23.594;2023-01-24T14:41:50;15.43;;;6.47;;
23171;SDS011;11754;42.664;23.594;2023-01-24T14:44:23;7.38;;;4.03;;
23171;SDS011;11754;42.664;23.594;2023-01-24T14:47:00;9.35;;;4.53;;
23171;SDS011;11754;42.664;23.594;2023-01-24T14:49:30;5.45;;;2.58;;
23171;SDS011;11754;42.664;23.594;2023-01-24T14:51:58;10.73;;;4.68;;
23171;SDS011;11754;42.664;23.594;2023-01-24T14:54:24;16.27;;;5.82;;
23171;SDS011;11754;42.664;23.594;2023-01-24T14:56:50;15.18;;;5.68;;
23171;SDS011;11754;42.664;23.594;2023-01-24T14:59:19;32.33;;;12.02;;
23171;SDS011;11754;42.664;23.594;2023-01-24T15:01:48;20.00;;;9.45;;
23171;SDS011;11754;42.664;23.594;2023-01-24T15:04:22;33.30;;;13.00;;
23171;SDS011;11754;42.664;23.594;2023-01-24T15:07:10;49.10;;;19.58;;
23171;SDS011;11754;42.664;23.594;2023-01-24T15:09:40;38.28;;;15.50;;
23171;SDS011;11754;42.664;23.594;2023-01-24T15:14:42;45.75;;;22.27;;
23171;SDS011;11754;42.664;23.594;2023-01-24T15:17:16;25.65;;;13.57;;
23171;SDS011;11754;42.664;23.594;2023-01-24T15:19:47;37.97;;;16.53;;
23171;SDS011;11754;42.664;23.594;2023-01-24T15:22:19;33.70;;;16.60;;
23171;SDS011;11754;42.664;23.594;2023-01-24T15:24:49;26.63;;;12.63;;
23171;SDS011;11754;42.664;23.594;2023-01-24T15:27:21;28.13;;;11.97;;
23171;SDS011;11754;42.664;23.594;2023-01-24T15:29:51;19.45;;;9.02;;
23171;SDS011;11754;42.664;23.594;2023-01-24T15:38:00;30.05;;;13.40;;
23171;SDS011;11754;42.664;23.594;2023-01-24T15:40:49;20.75;;;10.20;;
23171;SDS011;11754;42.664;23.594;2023-01-24T15:43:38;23.27;;;11.77;;
23171;SDS011;11754;42.664;23.594;2023-01-24T15:46:20;16.27;;;9.40;;
23171;SDS011;11754;42.664;23.594;2023-01-24T15:51:45;39.08;;;20.23;;
23171;SDS011;11754;42.664;23.594;2023-01-24T15:54:52;18.50;;;8.95;;
23171;SDS011;11754;42.664;23.594;2023-01-24T15:59:57;31.98;;;14.63;;
23171;SDS011;11754;42.664;23.594;2023-01-24T16:02:28;20.13;;;10.77;;
23171;SDS011;11754;42.664;23.594;2023-01-24T16:04:54;13.98;;;7.72;;
23171;SDS011;11754;42.664;23.594;2023-01-24T16:07:19;18.98;;;10.05;;
23171;SDS011;11754;42.664;23.594;2023-01-24T16:09:46;10.80;;;6.20;;
23171;SDS011;11754;42.664;23.594;2023-01-24T16:12:13;25.02;;;15.13;;
23171;SDS011;11754;42.664;23.594;2023-01-24T16:14:48;22.75;;;12.32;;
23171;SDS011;11754;42.664;23.594;2023-01-24T16:17:16;36.67;;;18.88;;
23171;SDS011;11754;42.664;23.594;2023-01-24T16:19:44;27.75;;;14.23;;
23171;SDS011;11754;42.664;23.594;2023-01-24T16:22:09;24.13;;;12.73;;
23171;SDS011;11754;42.664;23.594;2023-01-24T16:24:35;23.58;;;13.00;;
23171;SDS011;11754;42.664;23.594;2023-01-24T16:27:01;13.15;;;7.82;;
23171;SDS011;11754;42.664;23.594;2023-01-24T16:29:27;33.83;;;16.23;;
23171;SDS011;11754;42.664;23.594;2023-01-24T16:31:54;18.15;;;9.15;;
23171;SDS011;11754;42.664;23.594;2023-01-24T16:34:19;16.42;;;10.20;;
23171;SDS011;11754;42.664;23.594;2023-01-24T16:36:45;12.48;;;9.10;;
23171;SDS011;11754;42.664;23.594;2023-01-24T16:39:15;15.38;;;9.07;;
23171;SDS011;11754;42.664;23.594;2023-01-24T16:41:43;8.15;;;5.13;;
23171;SDS011;11754;42.664;23.594;2023-01-24T16:44:09;5.35;;;3.80;;
23171;SDS011;11754;42.664;23.594;2023-01-24T16:46:34;5.45;;;3.88;;
23171;SDS011;11754;42.664;23.594;2023-01-24T16:48:59;6.72;;;3.90;;
23171;SDS011;11754;42.664;23.594;2023-01-24T16:51:25;10.88;;;6.68;;
23171;SDS011;11754;42.664;23.594;2023-01-24T16:53:53;23.98;;;12.68;;
23171;SDS011;11754;42.664;23.594;2023-01-24T16:56:20;14.65;;;7.80;;
23171;SDS011;11754;42.664;23.594;2023-01-24T16:58:46;16.48;;;8.45;;
23171;SDS011;11754;42.664;23.594;2023-01-24T17:01:11;12.40;;;6.60;;
23171;SDS011;11754;42.664;23.594;2023-01-24T17:03:37;12.85;;;6.78;;
23171;SDS011;11754;42.664;23.594;2023-01-24T17:06:06;17.70;;;9.32;;
23171;SDS011;11754;42.664;23.594;2023-01-24T17:08:32;11.45;;;6.03;;
23171;SDS011;11754;42.664;23.594;2023-01-24T17:11:02;16.38;;;8.75;;
23171;SDS011;11754;42.664;23.594;2023-01-24T17:13:29;12.13;;;6.63;;
23171;SDS011;11754;42.664;23.594;2023-01-24T17:15:54;10.60;;;6.72;;
23171;SDS011;11754;42.664;23.594;2023-01-24T17:18:20;10.40;;;7.03;;
23171;SDS011;11754;42.664;23.594;2023-01-24T17:20:45;10.32;;;6.97;;
23171;SDS011;11754;42.664;23.594;2023-01-24T17:23:10;11.32;;;7.55;;
23171;SDS011;11754;42.664;23.594;2023-01-24T17:25:36;13.95;;;8.95;;
23171;SDS011;11754;42.664;23.594;2023-01-24T17:28:01;18.13;;;8.43;;
23171;SDS011;11754;42.664;23.594;2023-01-24T17:30:27;27.42;;;12.20;;
23171;SDS011;11754;42.664;23.594;2023-01-24T17:32:52;39.75;;;14.57;;
23171;SDS011;11754;42.664;23.594;2023-01-24T17:35:17;26.25;;;12.20;;
23171;SDS011;11754;42.664;23.594;2023-01-24T17:37:43;19.85;;;10.65;;
23171;SDS011;11754;42.664;23.594;2023-01-24T17:40:08;8.77;;;5.70;;
23171;SDS011;11754;42.664;23.594;2023-01-24T17:42:35;9.23;;;5.60;;
23171;SDS011;11754;42.664;23.594;2023-01-24T17:45:00;11.85;;;6.60;;
23171;SDS011;11754;42.664;23.594;2023-01-24T17:47:26;15.52;;;7.50;;
23171;SDS011;11754;42.664;23.594;2023-01-24T17:49:53;10.98;;;7.68;;
23171;SDS011;11754;42.664;23.594;2023-01-24T17:52:20;12.88;;;7.70;;
23171;SDS011;11754;42.664;23.594;2023-01-24T17:54:46;9.82;;;6.80;;
23171;SDS011;11754;42.664;23.594;2023-01-24T17:57:11;28.95;;;13.90;;
23171;SDS011;11754;42.664;23.594;2023-01-24T17:59:37;17.17;;;10.60;;
23171;SDS011;11754;42.664;23.594;2023-01-24T18:02:02;14.80;;;9.32;;
23171;SDS011;11754;42.664;23.594;2023-01-24T18:04:28;32.88;;;17.55;;
23171;SDS011;11754;42.664;23.594;2023-01-24T18:06:54;18.55;;;9.70;;
23171;SDS011;11754;42.664;23.594;2023-01-24T18:09:19;5.72;;;4.13;;
23171;SDS011;11754;42.664;23.594;2023-01-24T18:11:45;23.70;;;10.68;;
23171;SDS011;11754;42.664;23.594;2023-01-24T18:14:11;7.35;;;5.05;;
23171;SDS011;11754;42.664;23.594;2023-01-24T18:16:37;11.50;;;5.32;;
23171;SDS011;11754;42.664;23.594;2023-01-24T18:19:02;13.40;;;7.55;;
23171;SDS011;11754;42.664;23.594;2023-01-24T18:21:28;14.13;;;8.85;;
23171;SDS011;11754;42.664;23.594;2023-01-24T18:23:58;10.32;;;5.03;;
23171;SDS011;11754;42.664;23.594;2023-01-24T18:26:26;9.48;;;5.85;;
23171;SDS011;11754;42.664;23.594;2023-01-24T18:28:54;6.25;;;4.20;;
23171;SDS011;11754;42.664;23.594;2023-01-24T18:31:20;8.95;;;6.00;;
23171;SDS011;11754;42.664;23.594;2023-01-24T18:33:45;10.70;;;7.25;;
23171;SDS011;11754;42.664;23.594;2023-01-24T18:36:12;8.07;;;5.38;;
23171;SDS011;11754;42.664;23.594;2023-01-24T18:38:40;21.70;;;12.00;;
23171;SDS011;11754;42.664;23.594;2023-01-24T18:41:06;9.43;;;5.35;;
23171;SDS011;11754;42.664;23.594;2023-01-24T18:43:32;11.18;;;6.40;;
23171;SDS011;11754;42.664;23.594;2023-01-24T18:46:04;15.27;;;8.70;;
23171;SDS011;11754;42.664;23.594;2023-01-24T18:48:34;7.95;;;5.30;;
23171;SDS011;11754;42.664;23.594;2023-01-24T18:51:08;11.02;;;6.90;;
23171;SDS011;11754;42.664;23.594;2023-01-24T18:53:36;13.68;;;7.95;;
23171;SDS011;11754;42.664;23.594;2023-01-24T18:56:03;26.10;;;13.70;;
23171;SDS011;11754;42.664;23.594;2023-01-24T18:58:30;10.95;;;6.28;;
23171;SDS011;11754;42.664;23.594;2023-01-24T19:00:57;23.95;;;9.45;;
23171;SDS011;11754;42.664;23.594;2023-01-24T19:03:23;13.18;;;6.10;;
23171;SDS011;11754;42.664;23.594;2023-01-24T19:05:48;9.93;;;5.97;;
23171;SDS011;11754;42.664;23.594;2023-01-24T19:08:14;9.55;;;5.32;;
23171;SDS011;11754;42.664;23.594;2023-01-24T19:10:39;11.48;;;7.00;;
23171;SDS011;11754;42.664;23.594;2023-01-24T19:13:04;10.48;;;5.55;;
23171;SDS011;11754;42.664;23.594;2023-01-24T19:15:30;8.57;;;5.32;;
23171;SDS011;11754;42.664;23.594;2023-01-24T19:17:55;8.82;;;5.10;;
23171;SDS011;11754;42.664;23.594;2023-01-24T19:20:21;11.20;;;7.78;;
23171;SDS011;11754;42.664;23.594;2023-01-24T19:22:46;12.82;;;8.63;;
23171;SDS011;11754;42.664;23.594;2023-01-24T19:25:12;19.05;;;11.27;;
23171;SDS011;11754;42.664;23.594;2023-01-24T19:27:37;10.25;;;6.72;;
23171;SDS011;11754;42.664;23.594;2023-01-24T19:30:04;8.45;;;6.13;;
23171;SDS011;11754;42.664;23.594;2023-01-24T19:32:32;6.78;;;4.55;;